createdAt,value
2018-05-13T00:00:32.731Z,30.05
2018-05-13T00:03:00.223Z,32.63
2018-05-13T00:05:27.718Z,31.07
2018-05-13T00:07:55.999Z,28.00
2018-05-13T00:10:23.575Z,29.80
2018-05-13T00:12:51.094Z,29.45
2018-05-13T00:15:18.595Z,30.53
2018-05-13T00:17:46.115Z,34.55
2018-05-13T00:20:14.378Z,34.53
2018-05-13T00:22:41.896Z,32.85
2018-05-13T00:25:09.419Z,33.53
2018-05-13T00:27:37.807Z,35.73
2018-05-13T00:30:05.335Z,35.00
2018-05-13T00:32:32.874Z,38.05
2018-05-13T00:35:00.371Z,37.50
2018-05-13T00:37:28.658Z,44.13
2018-05-13T00:39:56.939Z,40.30
2018-05-13T00:42:24.443Z,37.70
2018-05-13T00:44:51.964Z,37.60
2018-05-13T00:47:19.471Z,41.47
2018-05-13T00:49:47.759Z,39.17
2018-05-13T00:52:15.287Z,41.83
2018-05-13T00:54:55.493Z,40.58
2018-05-13T00:57:23.754Z,38.90
2018-05-13T00:59:52.022Z,39.85
2018-05-13T01:02:19.553Z,42.90
2018-05-13T01:04:47.050Z,40.80
2018-05-13T01:07:15.344Z,38.23
2018-05-13T01:09:42.898Z,42.80
2018-05-13T01:12:11.158Z,41.25
2018-05-13T01:14:39.423Z,38.53
2018-05-13T01:17:07.722Z,41.92
2018-05-13T01:19:35.997Z,42.47
2018-05-13T01:22:04.302Z,37.75
2018-05-13T01:24:31.806Z,39.53
2018-05-13T01:26:59.311Z,40.25
2018-05-13T01:29:26.858Z,41.50
2018-05-13T01:31:54.367Z,38.70
2018-05-13T01:34:21.883Z,36.53
2018-05-13T01:36:49.436Z,43.77
2018-05-13T01:39:16.974Z,45.42
2018-05-13T01:41:45.262Z,39.30
2018-05-13T01:44:13.531Z,42.05
2018-05-13T01:46:41.827Z,39.55
2018-05-13T01:49:09.332Z,40.38
2018-05-13T01:51:36.938Z,39.97
2018-05-13T01:54:05.200Z,41.90
2018-05-13T01:56:33.466Z,40.05
2018-05-13T01:59:00.994Z,38.92
2018-05-13T02:01:28.498Z,40.55
2018-05-13T02:03:56.787Z,38.63
2018-05-13T02:06:24.376Z,39.07
2018-05-13T02:08:51.988Z,40.50
2018-05-13T02:11:20.270Z,39.25
2018-05-13T02:13:48.546Z,41.05
2018-05-13T02:16:16.815Z,42.00
2018-05-13T02:18:45.106Z,40.47
2018-05-13T02:21:12.618Z,38.05
2018-05-13T02:23:40.232Z,40.22
2018-05-13T02:26:07.724Z,41.00
2018-05-13T02:28:35.240Z,42.50
2018-05-13T02:31:02.803Z,39.20
2018-05-13T02:33:30.368Z,41.00
2018-05-13T02:35:57.863Z,38.53
2018-05-13T02:38:25.366Z,40.57
2018-05-13T02:40:53.687Z,41.65
2018-05-13T02:43:21.196Z,41.28
2018-05-13T02:45:49.498Z,39.97
2018-05-13T02:48:16.999Z,38.78
2018-05-13T02:50:44.522Z,39.87
2018-05-13T02:53:12.026Z,41.88
2018-05-13T02:55:40.330Z,40.35
2018-05-13T02:58:08.607Z,42.03
2018-05-13T03:00:36.889Z,41.22
2018-05-13T03:03:04.412Z,46.17
2018-05-13T03:05:32.011Z,38.90
2018-05-13T03:07:59.546Z,42.03
2018-05-13T03:10:27.043Z,43.70
2018-05-13T03:12:54.534Z,42.62
2018-05-13T03:15:22.150Z,45.50
2018-05-13T03:17:49.644Z,39.10
2018-05-13T03:20:17.163Z,42.00
2018-05-13T03:22:44.731Z,43.47
2018-05-13T03:25:12.257Z,41.85
2018-05-13T03:27:39.775Z,41.95
2018-05-13T03:30:07.295Z,40.40
2018-05-13T03:32:35.675Z,51.13
2018-05-13T03:35:03.191Z,44.17
2018-05-13T03:37:30.712Z,46.78
2018-05-13T03:39:58.257Z,46.70
2018-05-13T03:42:26.521Z,41.10
2018-05-13T03:44:54.790Z,47.70
2018-05-13T03:47:23.078Z,43.40
2018-05-13T03:49:50.595Z,43.20
2018-05-13T03:52:18.095Z,42.72
2018-05-13T03:54:45.630Z,45.23
2018-05-13T03:57:13.899Z,43.90
2018-05-13T03:59:41.424Z,44.10
2018-05-13T04:02:08.951Z,43.20
2018-05-13T04:04:36.457Z,45.15
2018-05-13T04:07:03.961Z,47.90
2018-05-13T04:09:43.511Z,42.60
2018-05-13T04:12:22.883Z,43.35
2018-05-13T04:15:03.253Z,39.63
2018-05-13T04:17:30.771Z,44.63
2018-05-13T04:19:58.275Z,42.00
2018-05-13T04:22:25.873Z,47.47
2018-05-13T04:24:53.395Z,41.00
2018-05-13T04:27:20.919Z,42.50
2018-05-13T04:29:48.447Z,46.20
2018-05-13T04:32:16.740Z,40.15
2018-05-13T04:34:44.254Z,41.55
2018-05-13T04:37:11.745Z,39.53
2018-05-13T04:39:39.266Z,39.08
2018-05-13T04:42:06.783Z,41.15
2018-05-13T04:44:34.332Z,37.92
2018-05-13T04:47:01.879Z,37.57
2018-05-13T04:49:29.390Z,42.30
2018-05-13T04:51:56.906Z,41.45
2018-05-13T04:54:24.451Z,38.25
2018-05-13T04:56:51.967Z,42.30
2018-05-13T04:59:19.475Z,44.55
2018-05-13T05:01:46.990Z,41.15
2018-05-13T05:04:14.481Z,40.12
2018-05-13T05:06:42.767Z,38.83
2018-05-13T05:09:10.314Z,40.90
2018-05-13T05:11:38.594Z,43.95
2018-05-13T05:14:06.855Z,38.97
2018-05-13T05:16:35.134Z,55.75
2018-05-13T05:19:03.407Z,37.80
2018-05-13T05:21:31.705Z,43.33
2018-05-13T05:23:59.203Z,42.87
2018-05-13T05:26:26.723Z,40.35
2018-05-13T05:28:54.227Z,45.08
2018-05-13T05:31:21.739Z,39.60
2018-05-13T05:33:49.242Z,45.12
2018-05-13T05:36:16.765Z,40.97
2018-05-13T05:38:44.313Z,42.83
2018-05-13T05:41:12.611Z,41.63
2018-05-13T05:43:40.130Z,42.55
2018-05-13T05:46:08.393Z,40.80
2018-05-13T05:48:36.819Z,40.58
2018-05-13T05:51:04.322Z,37.95
2018-05-13T05:53:31.831Z,42.57
2018-05-13T05:55:59.379Z,39.78
2018-05-13T05:58:26.912Z,36.13
2018-05-13T06:00:55.195Z,37.78
2018-05-13T06:03:23.486Z,36.38
2018-05-13T06:05:50.991Z,37.92
2018-05-13T06:08:18.522Z,34.67
2018-05-13T06:10:46.019Z,33.78
2018-05-13T06:13:13.515Z,32.47
2018-05-13T06:15:41.083Z,39.60
2018-05-13T06:18:08.581Z,36.72
2018-05-13T06:20:36.109Z,35.92
2018-05-13T06:23:03.650Z,36.10
2018-05-13T06:25:31.210Z,31.83
2018-05-13T06:27:58.710Z,33.25
2018-05-13T06:30:26.244Z,32.50
2018-05-13T06:32:53.752Z,32.70
2018-05-13T06:35:21.247Z,34.40
2018-05-13T06:37:48.794Z,34.80
2018-05-13T06:40:17.063Z,34.55
2018-05-13T06:42:45.354Z,35.10
2018-05-13T06:45:12.981Z,33.95
2018-05-13T06:47:41.194Z,33.00
2018-05-13T06:50:09.839Z,31.90
2018-05-13T06:52:37.360Z,34.38
2018-05-13T06:55:04.871Z,32.33
2018-05-13T06:57:32.395Z,31.80
2018-05-13T06:59:59.933Z,31.08
2018-05-13T07:02:27.436Z,34.67
2018-05-13T07:04:54.952Z,36.05
2018-05-13T07:07:22.514Z,35.03
2018-05-13T07:09:50.051Z,33.47
2018-05-13T07:12:17.591Z,33.03
2018-05-13T07:14:45.850Z,35.27
2018-05-13T07:17:13.354Z,22.20
2018-05-13T07:19:40.867Z,26.70
2018-05-13T07:22:09.127Z,20.92
2018-05-13T07:24:36.752Z,17.87
2018-05-13T07:27:04.275Z,22.40
2018-05-13T07:29:31.818Z,21.55
2018-05-13T07:31:59.313Z,22.77
2018-05-13T07:34:27.579Z,17.62
2018-05-13T07:36:55.875Z,19.83
2018-05-13T07:39:23.371Z,21.92
2018-05-13T07:41:50.899Z,19.50
2018-05-13T07:44:18.419Z,20.90
2018-05-13T07:46:46.709Z,19.77
2018-05-13T07:49:14.975Z,15.38
2018-05-13T07:51:43.271Z,12.05
2018-05-13T07:54:10.762Z,12.98
2018-05-13T07:56:38.278Z,13.60
2018-05-13T07:59:06.539Z,15.77
2018-05-13T08:01:34.043Z,13.15
2018-05-13T08:04:01.574Z,12.55
2018-05-13T08:06:29.862Z,15.90
2018-05-13T08:08:57.414Z,17.33
2018-05-13T08:11:24.975Z,17.83
2018-05-13T08:13:52.486Z,14.80
2018-05-13T08:16:19.995Z,15.40
2018-05-13T08:18:47.522Z,15.73
2018-05-13T08:21:15.024Z,23.95
2018-05-13T08:23:42.539Z,17.87
2018-05-13T08:26:10.130Z,22.87
2018-05-13T08:28:37.642Z,21.33
2018-05-13T08:31:05.132Z,22.10
2018-05-13T08:33:33.405Z,19.17
2018-05-13T08:36:01.692Z,18.90
2018-05-13T08:38:29.215Z,21.70
2018-05-13T08:40:56.811Z,21.90
2018-05-13T08:43:24.326Z,20.63
2018-05-13T08:45:51.855Z,20.17
2018-05-13T08:48:19.361Z,17.80
2018-05-13T08:50:46.884Z,16.92
2018-05-13T08:53:14.378Z,15.20
2018-05-13T08:55:42.668Z,16.42
2018-05-13T08:58:10.924Z,14.57
2018-05-13T09:00:38.532Z,17.42
2018-05-13T09:03:06.033Z,13.77
2018-05-13T09:05:33.551Z,15.32
2018-05-13T09:08:01.040Z,15.90
2018-05-13T09:10:28.551Z,16.90
2018-05-13T09:12:56.040Z,12.75
2018-05-13T09:15:23.559Z,17.58
2018-05-13T09:17:51.834Z,21.43
2018-05-13T09:20:20.123Z,16.08
2018-05-13T09:22:47.641Z,18.40
2018-05-13T09:25:15.157Z,22.98
2018-05-13T09:27:42.674Z,19.27
2018-05-13T09:30:10.981Z,21.80
2018-05-13T09:32:38.502Z,21.13
2018-05-13T09:35:06.082Z,20.50
2018-05-13T09:37:33.615Z,22.75
2018-05-13T09:40:01.299Z,23.17
2018-05-13T09:42:29.596Z,18.75
2018-05-13T09:44:57.145Z,22.67
2018-05-13T09:47:24.671Z,19.95
2018-05-13T09:49:52.196Z,23.45
2018-05-13T09:52:19.711Z,22.42
2018-05-13T09:54:47.962Z,24.48
2018-05-13T09:57:15.550Z,29.70
2018-05-13T09:59:43.058Z,25.67
2018-05-13T10:02:10.555Z,27.10
2018-05-13T10:04:38.835Z,29.30
2018-05-13T10:07:07.102Z,32.87
2018-05-13T10:09:35.390Z,33.22
2018-05-13T10:12:02.898Z,28.50
2018-05-13T10:14:30.423Z,35.20
2018-05-13T10:16:57.967Z,38.05
2018-05-13T10:19:26.257Z,36.17
2018-05-13T10:21:53.789Z,37.35
2018-05-13T10:24:22.055Z,34.03
2018-05-13T10:26:49.566Z,35.28
2018-05-13T10:29:17.062Z,33.35
2018-05-13T10:31:44.572Z,33.85
2018-05-13T10:34:12.062Z,37.73
2018-05-13T10:36:39.578Z,38.10
2018-05-13T10:39:07.072Z,39.63
2018-05-13T10:41:34.604Z,40.08
2018-05-13T10:44:02.155Z,37.38
2018-05-13T10:46:29.700Z,45.50
2018-05-13T10:48:57.228Z,41.35
2018-05-13T10:51:24.731Z,46.25
2018-05-13T10:53:52.252Z,44.58
2018-05-13T10:56:19.747Z,45.97
2018-05-13T10:58:47.270Z,43.50
2018-05-13T11:01:15.571Z,40.85
2018-05-13T11:03:43.836Z,54.10
2018-05-13T11:06:12.091Z,49.00
2018-05-13T11:08:39.685Z,49.53
2018-05-13T11:11:07.181Z,55.03
2018-05-13T11:13:34.700Z,50.83
2018-05-13T11:16:02.959Z,54.20
2018-05-13T11:18:31.239Z,49.80
2018-05-13T11:20:59.506Z,52.92
2018-05-13T11:23:27.038Z,57.62
2018-05-13T11:25:54.533Z,52.45
2018-05-13T11:28:22.792Z,55.08
2018-05-13T11:30:50.310Z,56.92
2018-05-13T11:33:17.811Z,52.55
2018-05-13T11:35:45.347Z,52.70
2018-05-13T11:38:12.843Z,49.37
2018-05-13T11:40:41.135Z,51.03
2018-05-13T11:43:08.626Z,55.10
2018-05-13T11:45:36.136Z,50.53
2018-05-13T11:48:04.426Z,50.92
2018-05-13T11:50:31.955Z,51.80
2018-05-13T11:52:59.551Z,49.60
2018-05-13T11:55:27.106Z,56.95
2018-05-13T11:57:54.655Z,56.30
2018-05-13T12:00:22.182Z,54.17
2018-05-13T12:02:51.179Z,59.20
2018-05-13T12:05:18.695Z,59.25
2018-05-13T12:07:46.193Z,60.80
2018-05-13T12:10:13.711Z,60.40
2018-05-13T12:12:41.227Z,68.68
2018-05-13T12:15:09.558Z,65.30
2018-05-13T12:17:37.016Z,69.32
2018-05-13T12:20:04.656Z,70.03
2018-05-13T12:22:32.154Z,70.78
2018-05-13T12:24:59.663Z,71.93
2018-05-13T12:27:27.154Z,78.15
2018-05-13T12:29:54.670Z,74.17
2018-05-13T12:32:22.184Z,86.28
2018-05-13T12:34:49.683Z,89.55
2018-05-13T12:37:17.976Z,116.40
2018-05-13T12:39:45.479Z,131.27
2018-05-13T12:42:12.997Z,137.23
2018-05-13T12:44:40.495Z,145.43
2018-05-13T12:47:08.014Z,149.52
2018-05-13T12:49:35.522Z,156.57
2018-05-13T12:52:03.045Z,155.23
2018-05-13T12:54:30.550Z,142.30
2018-05-13T12:56:58.835Z,136.07
2018-05-13T12:59:27.099Z,119.57
2018-05-13T13:01:55.387Z,94.32
2018-05-13T13:04:22.890Z,76.82
2018-05-13T13:06:50.383Z,73.32
2018-05-13T13:09:17.896Z,67.97
2018-05-13T13:11:45.402Z,69.30
2018-05-13T13:14:12.971Z,66.85
2018-05-13T13:16:41.240Z,64.65
2018-05-13T13:19:09.537Z,62.88
2018-05-13T13:21:37.039Z,56.58
2018-05-13T13:24:04.553Z,51.83
2018-05-13T13:26:32.812Z,54.83
2018-05-13T13:29:01.098Z,62.62
2018-05-13T13:31:29.375Z,60.97
2018-05-13T13:33:57.631Z,58.65
2018-05-13T13:36:25.138Z,63.63
2018-05-13T13:38:52.634Z,55.92
2018-05-13T13:41:21.663Z,61.30
2018-05-13T13:43:49.918Z,61.50
2018-05-13T13:46:17.447Z,68.62
2018-05-13T13:48:44.962Z,69.50
2018-05-13T13:51:12.463Z,65.45
2018-05-13T13:53:39.987Z,62.17
2018-05-13T13:56:07.488Z,61.00
2018-05-13T13:58:35.011Z,62.60
2018-05-13T14:01:02.528Z,65.93
2018-05-13T14:03:30.067Z,60.97
2018-05-13T14:05:57.673Z,62.40
2018-05-13T14:08:25.230Z,65.28
2018-05-13T14:10:52.759Z,71.17
2018-05-13T14:13:20.359Z,70.30
2018-05-13T14:15:47.867Z,70.78
2018-05-13T14:18:15.390Z,68.03
2018-05-13T14:20:42.937Z,74.57
2018-05-13T14:23:11.203Z,75.45
2018-05-13T14:25:38.699Z,83.35
2018-05-13T14:28:06.223Z,68.05
2018-05-13T14:30:33.719Z,74.03
2018-05-13T14:33:01.376Z,74.97
2018-05-13T14:35:28.904Z,72.45
2018-05-13T14:37:56.502Z,70.80
2018-05-13T14:40:23.941Z,73.37
2018-05-13T14:42:51.471Z,78.20
2018-05-13T14:45:18.995Z,72.30
2018-05-13T14:47:46.498Z,75.45
2018-05-13T14:50:14.010Z,72.28
2018-05-13T14:52:42.283Z,67.00
2018-05-13T14:55:09.799Z,65.57
2018-05-13T14:57:37.295Z,72.20
2018-05-13T15:00:04.827Z,63.90
2018-05-13T15:02:32.351Z,64.55
2018-05-13T15:04:59.964Z,63.25
2018-05-13T15:07:29.965Z,61.50
2018-05-13T15:09:57.492Z,57.10
2018-05-13T15:12:24.994Z,59.03
2018-05-13T15:14:52.514Z,65.90
2018-05-13T15:17:20.072Z,58.83
2018-05-13T15:19:47.591Z,60.13
2018-05-13T15:22:15.188Z,62.15
2018-05-13T15:24:42.700Z,58.10
2018-05-13T15:27:10.210Z,59.67
2018-05-13T15:29:37.711Z,62.40
2018-05-13T15:32:05.233Z,58.47
2018-05-13T15:34:32.732Z,60.35
2018-05-13T15:37:00.244Z,62.92
2018-05-13T15:39:27.735Z,59.10
2018-05-13T15:41:55.259Z,60.03
2018-05-13T15:44:22.765Z,64.18
2018-05-13T15:46:50.381Z,64.22
2018-05-13T15:49:17.879Z,65.07
2018-05-13T15:51:45.401Z,65.18
2018-05-13T15:54:12.918Z,62.08
2018-05-13T15:56:40.418Z,64.40
2018-05-13T15:59:07.942Z,67.57
2018-05-13T16:01:36.201Z,66.87
2018-05-13T16:04:04.488Z,69.83
2018-05-13T16:06:32.864Z,66.50
2018-05-13T16:09:00.335Z,66.70
2018-05-13T16:11:28.609Z,68.45
2018-05-13T16:13:56.895Z,64.20
2018-05-13T16:16:24.402Z,71.55
2018-05-13T16:18:51.934Z,70.50
2018-05-13T16:21:19.440Z,68.53
2018-05-13T16:23:46.951Z,66.90
2018-05-13T16:26:14.456Z,67.50
2018-05-13T16:28:41.970Z,62.08
2018-05-13T16:31:09.502Z,64.28
2018-05-13T16:33:37.796Z,60.57
2018-05-13T16:36:05.288Z,61.47
2018-05-13T16:38:32.847Z,58.33
2018-05-13T16:41:00.328Z,57.10
2018-05-13T16:43:27.817Z,54.08
2018-05-13T16:45:55.335Z,54.90
2018-05-13T16:48:22.827Z,52.90
2018-05-13T16:50:50.354Z,51.47
2018-05-13T16:53:17.952Z,50.83
2018-05-13T16:55:45.403Z,55.95
2018-05-13T16:58:12.899Z,57.30
2018-05-13T17:00:40.418Z,56.90
2018-05-13T17:03:07.973Z,58.22
2018-05-13T17:05:36.255Z,58.85
2018-05-13T17:08:03.807Z,57.45
2018-05-13T17:10:32.072Z,63.50
2018-05-13T17:13:00.464Z,58.80
2018-05-13T17:15:27.958Z,58.37
2018-05-13T17:17:55.486Z,59.35
2018-05-13T17:20:22.989Z,57.42
2018-05-13T17:22:50.490Z,58.78
2018-05-13T17:25:18.047Z,56.63
2018-05-13T17:27:46.315Z,57.72
2018-05-13T17:30:14.607Z,55.10
2018-05-13T17:32:42.110Z,60.05
2018-05-13T17:35:09.645Z,55.40
2018-05-13T17:37:37.171Z,54.33
2018-05-13T17:40:05.457Z,51.70
2018-05-13T17:42:32.962Z,52.53
2018-05-13T17:45:00.486Z,53.97
2018-05-13T17:47:28.047Z,48.65
2018-05-13T17:49:55.585Z,50.08
2018-05-13T17:52:23.158Z,61.13
2018-05-13T17:54:50.655Z,53.20
2018-05-13T17:57:18.266Z,51.00
2018-05-13T17:59:45.695Z,54.75
2018-05-13T18:02:13.975Z,56.13
2018-05-13T18:04:41.572Z,57.00
2018-05-13T18:07:09.096Z,53.97
2018-05-13T18:09:37.387Z,58.47
2018-05-13T18:12:05.680Z,56.97
2018-05-13T18:14:33.226Z,55.75
2018-05-13T18:17:01.497Z,54.85
2018-05-13T18:19:29.774Z,55.30
2018-05-13T18:21:58.066Z,56.17
2018-05-13T18:24:25.669Z,59.75
2018-05-13T18:26:53.183Z,58.38
2018-05-13T18:29:20.702Z,55.63
2018-05-13T18:31:48.298Z,60.85
2018-05-13T18:34:16.562Z,58.72
2018-05-13T18:36:44.831Z,63.13
2018-05-13T18:39:12.451Z,60.47
2018-05-13T18:41:39.881Z,56.50
2018-05-13T18:44:07.403Z,62.30
2018-05-13T18:46:36.526Z,64.87
2018-05-13T18:49:04.042Z,60.85
2018-05-13T18:51:31.560Z,61.88
2018-05-13T18:53:59.063Z,64.95
2018-05-13T18:56:26.656Z,60.53
2018-05-13T18:58:54.923Z,58.38
2018-05-13T19:01:23.191Z,60.72
2018-05-13T19:03:51.471Z,58.78
2018-05-13T19:06:19.771Z,63.00
2018-05-13T19:08:47.282Z,60.60
2018-05-13T19:11:14.778Z,61.80
2018-05-13T19:13:43.154Z,57.42
2018-05-13T19:16:11.431Z,62.07
2018-05-13T19:18:39.708Z,63.63
2018-05-13T19:21:07.198Z,64.53
2018-05-13T19:23:34.723Z,68.00
2018-05-13T19:26:02.240Z,62.85
2018-05-13T19:28:29.781Z,61.22
2018-05-13T19:30:57.352Z,65.57
2018-05-13T19:33:24.799Z,62.70
2018-05-13T19:35:52.326Z,64.15
2018-05-13T19:38:19.832Z,69.50
2018-05-13T19:40:47.358Z,65.57
2018-05-13T19:43:14.940Z,62.92
2018-05-13T19:45:42.426Z,71.32
2018-05-13T19:48:09.942Z,71.85
2018-05-13T19:50:37.471Z,68.93
2018-05-13T19:53:04.987Z,67.87
2018-05-13T19:55:32.597Z,71.10
2018-05-13T19:58:00.099Z,64.70
2018-05-13T20:00:27.627Z,61.95
2018-05-13T20:02:55.182Z,60.65
2018-05-13T20:05:23.415Z,60.47
2018-05-13T20:07:51.712Z,63.53
2018-05-13T20:10:19.249Z,64.60
2018-05-13T20:12:46.834Z,66.40
2018-05-13T20:15:14.350Z,63.55
2018-05-13T20:17:41.868Z,68.28
2018-05-13T20:20:09.367Z,68.25
2018-05-13T20:25:35.247Z,63.90
2018-05-13T20:28:02.811Z,68.03
2018-05-13T20:30:30.314Z,65.35
2018-05-13T20:32:57.850Z,73.03
2018-05-13T20:35:25.386Z,72.30
2018-05-13T20:37:52.881Z,70.22
2018-05-13T20:40:20.394Z,66.55
2018-05-13T20:42:48.668Z,68.13
2018-05-13T20:45:16.227Z,71.47
2018-05-13T20:47:44.486Z,66.03
2018-05-13T20:50:12.786Z,69.62
2018-05-13T20:52:40.342Z,72.45
2018-05-13T20:55:07.850Z,71.80
2018-05-13T20:57:35.335Z,69.00
2018-05-13T21:00:03.615Z,72.85
2018-05-13T21:02:31.879Z,67.37
2018-05-13T21:04:59.484Z,69.12
2018-05-13T21:07:26.980Z,67.53
2018-05-13T21:09:54.490Z,78.15
2018-05-13T21:12:22.043Z,74.00
2018-05-13T21:14:50.298Z,65.50
2018-05-13T21:17:17.811Z,75.95
2018-05-13T21:19:45.302Z,72.53
2018-05-13T21:22:12.820Z,73.15
2018-05-13T21:24:40.312Z,75.53
2018-05-13T21:27:07.831Z,71.53
2018-05-13T21:29:35.328Z,73.55
2018-05-13T21:32:02.911Z,68.82
2018-05-13T21:34:31.198Z,69.20
2018-05-13T21:36:59.581Z,71.45
2018-05-13T21:39:27.843Z,73.93
2018-05-13T21:41:56.239Z,70.40
2018-05-13T21:44:23.736Z,73.47
2018-05-13T21:46:51.351Z,69.43
2018-05-13T21:49:19.635Z,70.97
2018-05-13T21:51:47.178Z,74.65
2018-05-13T21:54:14.675Z,69.90
2018-05-13T21:56:42.171Z,71.10
2018-05-13T21:59:09.683Z,72.80
2018-05-13T22:01:37.235Z,74.85
2018-05-13T22:04:04.792Z,69.22
2018-05-13T22:06:32.344Z,71.83
2018-05-13T22:08:59.866Z,70.45
2018-05-13T22:11:27.456Z,70.90
2018-05-13T22:13:55.736Z,70.37
2018-05-13T22:16:23.999Z,71.30
2018-05-13T22:18:52.350Z,71.73
2018-05-13T22:21:19.943Z,68.00
2018-05-13T22:23:48.222Z,70.78
2018-05-13T22:26:16.511Z,74.80
2018-05-13T22:28:44.030Z,67.85
2018-05-13T22:31:11.522Z,76.70
2018-05-13T22:33:39.019Z,72.43
2018-05-13T22:36:06.643Z,75.37
2018-05-13T22:38:34.198Z,71.43
2018-05-13T22:41:01.715Z,69.65
2018-05-13T22:43:29.319Z,72.97
2018-05-13T22:45:56.875Z,79.47
2018-05-13T22:48:24.372Z,78.32
2018-05-13T22:50:51.898Z,72.07
2018-05-13T22:53:19.461Z,77.10
2018-05-13T22:55:46.981Z,83.37
2018-05-13T22:58:14.567Z,80.37
2018-05-13T23:00:42.095Z,74.60
2018-05-13T23:03:09.595Z,72.45
2018-05-13T23:05:37.162Z,76.10
2018-05-13T23:08:04.703Z,80.27
2018-05-13T23:10:32.211Z,76.43
2018-05-13T23:12:59.733Z,81.90
2018-05-13T23:15:27.233Z,81.65
2018-05-13T23:17:54.752Z,79.70
2018-05-13T23:20:22.257Z,77.03
2018-05-13T23:22:49.783Z,79.28
2018-05-13T23:25:17.285Z,74.80
2018-05-13T23:27:45.683Z,81.40
2018-05-13T23:30:13.961Z,75.90
2018-05-13T23:32:42.222Z,79.95
2018-05-13T23:35:10.513Z,80.40
2018-05-13T23:37:38.042Z,82.32
2018-05-13T23:40:05.626Z,83.55
2018-05-13T23:42:33.902Z,83.20
2018-05-13T23:45:02.183Z,76.67
2018-05-13T23:47:30.447Z,83.83
2018-05-13T23:49:58.722Z,80.33
2018-05-13T23:52:26.979Z,85.83
2018-05-13T23:54:54.571Z,78.83
2018-05-13T23:57:22.832Z,84.85
2018-05-13T23:59:51.126Z,90.05
